Portada
METAR-TAF:

METAR-TAF

Aeroports :

Lamoni Municipal Airport

Lamoni, Iowa, Estats Units d'Amèrica

latitud: 40-37-50N, longitud: 093-54-03W, altitud: 344 m

Observació

L'informe es va fer fa 1 hora i 9 minuts, a les 07:53 UTC
Vent 4 kt del Est
Temperatura 23°C
Humitat 89%
Pressió 1016 hPa
Visibilitat: 16.1 km
Cel clar

METAR: KLWD 060753Z AUTO 09004KT 10SM CLR 23/21 A2999 RMK AO2 SLP145 T02280206

Hora: 04:02 (09:02 UTC)


TAF: manca

Observacions i pronòstics meteorològics de més de 4000 aeroports (METAR i TAF).

Les estacions disponibles són els punts grocs i vermells al mapa.

Posi el ratolí al punt desitjat per veure el nom de l'estació.

Feu clic per veure les observacions i els pronòstics meteorològics.

Per canviar el mapa: feu clic els botons verds amb una creu de color negre per apropar; al botó verd amb un guió per allunyar la imatge; o en les fletxes verdes per a mapes adjacents.


METAR-TAF: